Time;durP1;ratioP1;P1;durP2;ratioP2;P2;SDS_P1;SDS_P2;PMS_P1;PMS_P2;Temp;Humidity;BMP_temperature;BMP_pressure;BME280_temperature;BME280_humidity;BME280_pressure;Samples;Min_cycle;Max_cycle;Signal;HPM_P1;HPM_P2
2021/08/09 00:00:14;;;;;;;1999.90;999.90;;;;;;;18.90;78.61;95806.63;5111229;28;20753;-66
2021/08/09 00:02:41;;;;;;;1999.90;999.90;;;;;;;18.77;79.09;95805.16;5111437;28;20215;-65
2021/08/09 00:05:10;;;;;;;1999.90;999.90;;;;;;;18.60;79.48;95802.81;5111384;28;20604;-65
2021/08/09 00:07:37;;;;;;;1999.90;999.90;;;;;;;18.76;79.14;95802.88;5111118;28;20203;-65
2021/08/09 00:10:05;;;;;;;1999.90;999.90;;;;;;;18.80;78.74;95807.13;5111414;28;20252;-65
2021/08/09 00:12:34;;;;;;;1999.90;999.90;;;;;;;18.72;79.63;95802.00;5110855;28;20235;-65
2021/08/09 00:15:01;;;;;;;1999.90;999.90;;;;;;;18.74;79.25;95807.69;5110819;28;20249;-65
2021/08/09 00:17:28;;;;;;;1999.90;999.90;;;;;;;18.55;79.77;95803.06;5110784;28;20282;-66
2021/08/09 00:19:56;;;;;;;1999.90;999.90;;;;;;;18.56;79.26;95812.50;5110786;28;20313;-65
2021/08/09 00:22:23;;;;;;;1999.90;999.90;;;;;;;18.59;78.78;95811.81;5110821;28;20195;-65
2021/08/09 00:24:50;;;;;;;1999.90;999.90;;;;;;;18.47;79.28;95811.84;5110720;28;20191;-66
2021/08/09 00:27:17;;;;;;;1999.90;999.90;;;;;;;18.57;78.55;95802.75;5111055;28;20282;-66
2021/08/09 00:29:46;;;;;;;1999.90;999.90;;;;;;;18.62;77.73;95805.13;5110634;28;20736;-66
2021/08/09 00:32:13;;;;;;;1999.90;999.90;;;;;;;18.53;78.09;95804.50;5110482;28;20216;-66
2021/08/09 00:34:41;;;;;;;1999.90;999.90;;;;;;;18.41;79.34;95802.66;5110518;28;20218;-65
2021/08/09 00:37:08;;;;;;;1999.90;999.90;;;;;;;18.06;80.69;95816.38;5110354;28;20256;-65
2021/08/09 00:39:35;;;;;;;1999.90;999.90;;;;;;;18.00;81.17;95815.06;5110061;28;20239;-65
2021/08/09 00:42:02;;;;;;;1999.90;999.90;;;;;;;18.08;80.89;95808.91;5090439;28;20192;-65
2021/08/09 00:44:30;;;;;;;1999.90;999.90;;;;;;;18.18;81.01;95810.28;5090014;28;20279;-66
2021/08/09 00:46:58;;;;;;;1999.90;999.90;;;;;;;18.22;81.07;95807.78;5089841;28;20742;-66
2021/08/09 00:49:26;;;;;;;1999.90;999.90;;;;;;;18.15;81.00;95804.94;5089858;28;20200;-66
2021/08/09 00:51:55;;;;;;;1999.90;999.90;;;;;;;18.30;80.70;95799.75;5089805;28;20286;-66
2021/08/09 00:54:23;;;;;;;1999.90;999.90;;;;;;;18.36;80.00;95795.78;5089923;28;20228;-66
2021/08/09 00:56:51;;;;;;;1999.90;999.90;;;;;;;18.24;80.80;95795.03;5089651;28;20542;-66
2021/08/09 00:59:18;;;;;;;1999.90;999.90;;;;;;;18.13;81.02;95800.03;5089633;28;20195;-65
2021/08/09 01:01:45;;;;;;;1999.90;999.90;;;;;;;17.99;81.96;95800.38;5089768;28;20291;-66
2021/08/09 01:04:14;;;;;;;1999.90;999.90;;;;;;;18.06;81.97;95797.19;5089963;28;20223;-66
2021/08/09 01:06:42;;;;;;;1999.90;999.90;;;;;;;18.06;82.28;95795.31;5089470;28;20656;-65
2021/08/09 01:09:17;;;;;;;1999.90;999.90;;;;;;;17.99;82.35;95797.75;5089904;28;20268;-65
2021/08/09 01:11:48;;;;;;;1999.90;999.90;;;;;;;18.00;82.63;95803.78;5089395;28;20180;-65
2021/08/09 01:14:32;;;;;;;1999.90;999.90;;;;;;;18.05;81.94;95799.06;5089689;28;20212;-66
2021/08/09 01:17:02;;;;;;;1999.90;999.90;;;;;;;17.93;82.78;95796.44;5089373;28;20191;-65
2021/08/09 01:19:42;;;;;;;1999.90;999.90;;;;;;;17.66;84.01;95807.66;5089341;28;20188;-66
2021/08/09 01:22:18;;;;;;;1999.90;999.90;;;;;;;17.79;83.54;95813.66;5089297;28;20211;-66
2021/08/09 01:24:51;;;;;;;1999.90;999.90;;;;;;;17.87;83.28;95808.31;5089265;28;20219;-66
2021/08/09 01:27:29;;;;;;;1999.90;999.90;;;;;;;17.86;83.37;95813.88;5089224;28;20191;-66
2021/08/09 01:30:01;;;;;;;1999.90;999.90;;;;;;;17.78;82.88;95820.81;5089277;28;20227;-66
2021/08/09 01:32:30;;;;;;;1999.90;999.90;;;;;;;17.50;84.03;95815.41;5089179;28;20648;-66
2021/08/09 01:34:58;;;;;;;1999.90;999.90;;;;;;;17.49;84.57;95807.84;5089074;28;20346;-66
2021/08/09 01:37:28;;;;;;;1999.90;999.90;;;;;;;17.51;84.53;95803.03;5089233;28;20192;-66
2021/08/09 01:39:57;;;;;;;1999.90;999.90;;;;;;;17.36;86.03;95793.19;5090800;28;20275;-65
2021/08/09 01:42:26;;;;;;;1999.90;999.90;;;;;;;17.38;86.19;95812.81;5109357;28;20202;-66
2021/08/09 01:44:53;;;;;;;1999.90;999.90;;;;;;;17.44;85.30;95806.22;5109325;28;20674;-66
2021/08/09 01:47:21;;;;;;;1999.90;999.90;;;;;;;17.44;85.74;95813.31;5093066;28;20195;-65
2021/08/09 01:49:50;;;;;;;1999.90;999.90;;;;;;;17.48;85.87;95816.84;5088987;28;20195;-66
2021/08/09 01:52:17;;;;;;;1999.90;999.90;;;;;;;17.55;85.31;95817.06;5088065;28;20565;-66
2021/08/09 01:54:45;;;;;;;1999.90;999.90;;;;;;;17.47;85.56;95821.34;5088817;28;20220;-66
2021/08/09 01:57:12;;;;;;;1999.90;999.90;;;;;;;17.47;85.64;95820.56;5088917;28;20729;-64
2021/08/09 01:59:42;;;;;;;1999.90;999.90;;;;;;;17.47;85.49;95817.94;5088844;28;20196;-65
2021/08/09 02:02:09;;;;;;;1999.90;999.90;;;;;;;17.47;85.77;95815.31;5100190;28;20278;-66
2021/08/09 02:04:36;;;;;;;1999.90;999.90;;;;;;;17.38;86.02;95825.16;5108698;28;20286;-65
2021/08/09 02:07:04;;;;;;;1999.90;999.90;;;;;;;17.21;86.23;95826.13;5107220;28;20199;-65
2021/08/09 02:09:31;;;;;;;1999.90;999.90;;;;;;;17.16;86.86;95821.09;5107864;28;21421;-65
2021/08/09 02:12:04;;;;;;;1999.90;999.90;;;;;;;17.14;86.78;95828.53;5108976;28;20260;-66
2021/08/09 02:14:34;;;;;;;1999.90;999.90;;;;;;;17.02;87.36;95829.28;5109500;28;20226;-66
2021/08/09 02:17:09;;;;;;;1999.90;999.90;;;;;;;16.94;87.68;95840.63;5109177;28;20286;-65
2021/08/09 02:19:41;;;;;;;1999.90;999.90;;;;;;;17.00;87.72;95841.97;5109113;28;20178;-67
2021/08/09 02:22:12;;;;;;;1999.90;999.90;;;;;;;16.92;88.74;95832.31;5109125;28;20187;-65
2021/08/09 02:24:46;;;;;;;1999.90;999.90;;;;;;;16.96;88.47;95835.06;5108985;28;20711;-65
2021/08/09 02:27:17;;;;;;;1999.90;999.90;;;;;;;16.97;88.85;95839.22;5109012;28;20182;-65
2021/08/09 02:29:47;;;;;;;1999.90;999.90;;;;;;;17.04;88.49;95845.47;5109279;28;20568;-66
2021/08/09 02:32:18;;;;;;;1999.90;999.90;;;;;;;17.07;87.90;95844.06;5108995;28;20739;-64
2021/08/09 02:34:48;;;;;;;1999.90;999.90;;;;;;;16.90;88.28;95845.00;5108742;28;20634;-64
2021/08/09 02:37:16;;;;;;;1999.90;999.90;;;;;;;16.91;88.62;95846.53;5108779;28;20198;-65
2021/08/09 02:39:43;;;;;;;1999.90;999.90;;;;;;;16.83;89.17;95855.28;5108370;28;20237;-65
2021/08/09 02:42:12;;;;;;;1999.90;999.90;;;;;;;16.84;89.50;95862.03;5088453;28;20223;-65
2021/08/09 02:44:41;;;;;;;1999.90;999.90;;;;;;;16.85;89.30;95863.59;5088020;28;20204;-64
2021/08/09 02:47:12;;;;;;;1999.90;999.90;;;;;;;16.88;88.86;95857.69;5088376;28;20305;-65
2021/08/09 02:49:46;;;;;;;1999.90;999.90;;;;;;;16.79;89.11;95859.63;5088439;28;20215;-65
2021/08/09 02:52:13;;;;;;;1999.90;999.90;;;;;;;16.85;88.99;95862.81;5088777;28;20226;-65
2021/08/09 02:54:42;;;;;;;1999.90;999.90;;;;;;;16.79;88.67;95872.75;5088283;28;20313;-65
2021/08/09 02:57:10;;;;;;;1999.90;999.90;;;;;;;16.79;88.35;95878.75;5088733;28;20257;-65
2021/08/09 02:59:38;;;;;;;1999.90;999.90;;;;;;;16.77;88.16;95867.06;5088627;28;20200;-66
2021/08/09 03:02:07;;;;;;;1999.90;999.90;;;;;;;16.66;88.45;95877.19;5088210;28;20196;-66
2021/08/09 03:04:37;;;;;;;1999.90;999.90;;;;;;;16.59;89.33;95876.16;5090801;28;20192;-66
2021/08/09 03:07:06;;;;;;;1999.90;999.90;;;;;;;16.63;89.58;95882.31;5091809;28;20218;-66
2021/08/09 03:09:35;;;;;;;1999.90;999.90;;;;;;;16.50;90.38;95888.56;5091821;28;20207;-66
2021/08/09 03:12:02;;;;;;;1999.90;999.90;;;;;;;16.44;90.79;95882.72;5091731;28;20243;-65
2021/08/09 03:14:31;;;;;;;1999.90;999.90;;;;;;;16.52;90.56;95883.75;5091708;28;20192;-66
2021/08/09 03:17:01;;;;;;;1999.90;999.90;;;;;;;16.53;90.41;95882.69;5091662;28;20205;-65
2021/08/09 03:19:28;;;;;;;1999.90;999.90;;;;;;;16.63;89.94;95882.31;5091558;28;20206;-66
2021/08/09 03:21:57;;;;;;;1999.90;999.90;;;;;;;16.70;89.52;95885.19;5091634;28;20283;-65
2021/08/09 03:24:28;;;;;;;1999.90;999.90;;;;;;;16.78;89.12;95884.34;5091672;28;20203;-65
2021/08/09 03:26:56;;;;;;;1999.90;999.90;;;;;;;16.84;89.15;95884.91;5091433;28;20215;-66
2021/08/09 03:29:23;;;;;;;1999.90;999.90;;;;;;;16.88;89.18;95881.31;5091364;28;20257;-65
2021/08/09 03:31:51;;;;;;;1999.90;999.90;;;;;;;16.71;89.61;95884.09;5091652;28;20195;-65
2021/08/09 03:34:19;;;;;;;1999.90;999.90;;;;;;;16.72;89.36;95885.63;5091398;28;20747;-64
2021/08/09 03:36:46;;;;;;;1999.90;999.90;;;;;;;16.82;88.66;95885.25;5091166;28;20253;-65
2021/08/09 03:39:14;;;;;;;1999.90;999.90;;;;;;;16.86;88.23;95885.34;5091134;28;20200;-65
2021/08/09 03:41:43;;;;;;;1999.90;999.90;;;;;;;16.67;88.78;95886.59;5107789;28;20195;-66
2021/08/09 03:44:10;;;;;;;1999.90;999.90;;;;;;;16.63;88.96;95888.34;5108484;28;20282;-65
2021/08/09 03:46:38;;;;;;;1999.90;999.90;;;;;;;16.69;88.51;95886.25;5111732;28;20206;-66
2021/08/09 03:49:08;;;;;;;1999.90;999.90;;;;;;;16.68;89.06;95896.03;5111737;28;20195;-66
2021/08/09 03:51:35;;;;;;;1999.90;999.90;;;;;;;16.34;90.01;95897.00;5111616;28;20305;-66
2021/08/09 03:54:02;;;;;;;1999.90;999.90;;;;;;;16.31;90.65;95892.41;5111347;28;20554;-66
2021/08/09 03:56:30;;;;;;;1999.90;999.90;;;;;;;16.42;90.79;95892.78;5111277;28;20227;-65
2021/08/09 03:58:58;;;;;;;1999.90;999.90;;;;;;;16.62;90.29;95886.03;5095748;28;20211;-66
2021/08/09 04:01:26;;;;;;;1999.90;999.90;;;;;;;16.69;90.15;95888.88;5102904;28;20205;-67
2021/08/09 04:03:53;;;;;;;1999.90;999.90;;;;;;;16.59;90.87;95892.66;5110991;28;20195;-66
2021/08/09 04:06:21;;;;;;;1999.90;999.90;;;;;;;16.56;90.97;95889.91;5091328;28;20287;-63
2021/08/09 04:08:49;;;;;;;1999.90;999.90;;;;;;;16.63;90.88;95900.69;5090801;28;20195;-63
2021/08/09 04:11:17;;;;;;;1999.90;999.90;;;;;;;16.78;90.31;95900.88;5090194;28;20196;-65
2021/08/09 04:13:44;;;;;;;1999.90;999.90;;;;;;;16.89;90.42;95903.06;5090655;28;20202;-64
2021/08/09 04:16:13;;;;;;;1999.90;999.90;;;;;;;17.14;90.01;95902.06;5087333;28;20255;-64
2021/08/09 04:18:40;;;;;;;1999.90;999.90;;;;;;;17.48;89.22;95900.94;5087335;28;20579;-64
2021/08/09 04:21:08;;;;;;;1999.90;999.90;;;;;;;17.89;86.75;95900.75;5087389;28;20290;-63
2021/08/09 04:23:35;;;;;;;1999.90;999.90;;;;;;;18.36;84.28;95892.38;5088148;28;20196;-62
2021/08/09 04:26:02;;;;;;;1999.90;999.90;;;;;;;18.78;81.38;95898.84;5087013;28;20282;-63
2021/08/09 04:28:29;;;;;;;1999.90;999.90;;;;;;;19.17;76.62;95899.91;5088226;28;20196;-64
2021/08/09 04:30:56;;;;;;;1999.90;999.90;;;;;;;19.49;75.22;95910.47;5088440;28;20196;-64
2021/08/09 04:33:25;;;;;;;1999.90;999.90;;;;;;;19.68;74.56;95913.22;5090146;28;20203;-64
2021/08/09 04:35:52;;;;;;;1999.90;999.90;;;;;;;20.03;75.78;95918.53;5090152;28;20223;-64
2021/08/09 04:38:19;;;;;;;1999.90;999.90;;;;;;;20.27;74.97;95920.97;5089992;28;20203;-65
2021/08/09 04:40:47;;;;;;;1999.90;999.90;;;;;;;20.40;74.33;95925.06;5098544;28;20227;-65
2021/08/09 04:43:14;;;;;;;1999.90;999.90;;;;;;;20.45;74.69;95919.50;5110581;28;20202;-65
2021/08/09 04:45:41;;;;;;;1999.90;999.90;;;;;;;20.56;74.16;95920.50;5110166;28;20226;-65
2021/08/09 04:48:08;;;;;;;1999.90;999.90;;;;;;;20.54;73.54;95922.72;5110212;28;20231;-65
2021/08/09 04:50:37;;;;;;;1999.90;999.90;;;;;;;20.44;74.83;95922.47;5110156;28;20235;-65
2021/08/09 04:53:07;;;;;;;1999.90;999.90;;;;;;;20.41;75.29;95929.22;5110410;28;20278;-64
2021/08/09 04:55:35;;;;;;;1999.90;999.90;;;;;;;20.41;74.79;95934.50;5109956;28;20210;-65
2021/08/09 04:58:02;;;;;;;1999.90;999.90;;;;;;;20.64;75.28;95937.25;5109976;28;20230;-65
2021/08/09 05:00:29;;;;;;;1999.90;999.90;;;;;;;20.68;75.13;95938.06;5109937;28;20194;-65
2021/08/09 05:02:56;;;;;;;1999.90;999.90;;;;;;;20.73;74.77;95942.31;5109936;28;20742;-65
2021/08/09 05:05:23;;;;;;;1999.90;999.90;;;;;;;20.88;74.74;95944.13;5110009;28;20285;-65
2021/08/09 05:07:55;;;;;;;1999.90;999.90;;;;;;;21.07;74.21;95953.97;5110183;28;20256;-65
2021/08/09 05:10:23;;;;;;;1999.90;999.90;;;;;;;21.11;71.56;95955.56;5110160;28;20706;-65
2021/08/09 05:12:50;;;;;;;1999.90;999.90;;;;;;;21.10;73.62;95964.59;5109937;28;20255;-65
2021/08/09 05:15:19;;;;;;;1999.90;999.90;;;;;;;21.12;73.40;95962.34;5110121;28;20305;-65
2021/08/09 05:17:46;;;;;;;1999.90;999.90;;;;;;;21.02;74.41;95963.66;5109664;28;20199;-65
2021/08/09 05:20:14;;;;;;;1999.90;999.90;;;;;;;21.02;74.92;95965.56;5109422;28;20239;-65
2021/08/09 05:22:41;;;;;;;1999.90;999.90;;;;;;;21.04;72.63;95971.25;5109345;28;20191;-65
2021/08/09 05:25:11;;;;;;;1999.90;999.90;;;;;;;21.16;72.17;95965.88;5109303;28;20191;-65
2021/08/09 05:27:39;;;;;;;1999.90;999.90;;;;;;;21.26;68.16;95960.03;5109794;28;20187;-65
2021/08/09 05:30:08;;;;;;;1999.90;999.90;;;;;;;21.33;69.01;95965.41;5109533;28;20203;-65
2021/08/09 05:32:36;;;;;;;1999.90;999.90;;;;;;;21.40;66.98;95962.91;5109316;28;20289;-65
2021/08/09 05:35:05;;;;;;;1999.90;999.90;;;;;;;21.56;68.03;95970.75;5109222;28;20214;-64
2021/08/09 05:37:34;;;;;;;1999.90;999.90;;;;;;;21.70;68.28;95970.22;5109491;28;20199;-65
2021/08/09 05:40:01;;;;;;;1999.90;999.90;;;;;;;21.87;67.11;95965.22;5106478;28;20767;-65
2021/08/09 05:42:30;;;;;;;1999.90;999.90;;;;;;;21.82;68.92;95965.50;5088663;28;20659;-65
2021/08/09 05:44:57;;;;;;;1999.90;999.90;;;;;;;22.10;67.63;95962.59;5089047;28;20205;-65
2021/08/09 05:47:25;;;;;;;1999.90;999.90;;;;;;;22.35;64.72;95962.19;5091280;28;20290;-65
2021/08/09 05:49:53;;;;;;;1999.90;999.90;;;;;;;22.52;63.87;95966.97;5088929;28;20199;-66
2021/08/09 05:52:21;;;;;;;1999.90;999.90;;;;;;;22.59;63.91;95964.41;5088984;28;20586;-66
2021/08/09 05:54:49;;;;;;;1999.90;999.90;;;;;;;22.69;64.20;95966.44;5088632;28;20676;-65
2021/08/09 05:57:17;;;;;;;1999.90;999.90;;;;;;;22.62;64.98;95958.38;5089009;28;20609;-66
2021/08/09 05:59:46;;;;;;;1999.90;999.90;;;;;;;22.78;65.38;95959.00;5088803;28;20199;-65
2021/08/09 06:02:13;;;;;;;1999.90;999.90;;;;;;;23.01;64.67;95957.00;5088656;28;20199;-65
2021/08/09 06:04:41;;;;;;;1999.90;999.90;;;;;;;22.97;64.01;95955.44;5088853;28;20203;-65
2021/08/09 06:07:13;;;;;;;1999.90;999.90;;;;;;;22.98;63.01;95947.13;5088616;28;20192;-65
2021/08/09 06:09:41;;;;;;;1999.90;999.90;;;;;;;23.22;63.30;95953.06;5088901;28;20192;-65
2021/08/09 06:12:08;;;;;;;1999.90;999.90;;;;;;;23.58;62.87;95957.63;5088559;28;20204;-65
2021/08/09 06:14:36;;;;;;;1999.90;999.90;;;;;;;23.72;62.92;95963.06;5088929;28;20192;-65
2021/08/09 06:17:06;;;;;;;1999.90;999.90;;;;;;;23.72;63.06;95967.63;5088367;28;20307;-65
2021/08/09 06:19:35;;;;;;;1999.90;999.90;;;;;;;24.06;61.22;95963.00;5088527;28;20234;-66
2021/08/09 06:22:02;;;;;;;1999.90;999.90;;;;;;;24.36;60.50;95958.28;5088560;28;20207;-66
2021/08/09 06:24:30;;;;;;;1999.90;999.90;;;;;;;24.28;60.38;95954.06;5088360;28;20195;-67
2021/08/09 06:26:57;;;;;;;1999.90;999.90;;;;;;;24.50;59.17;95955.72;5088396;28;20206;-66
2021/08/09 06:29:24;;;;;;;1999.90;999.90;;;;;;;24.69;57.92;95947.47;5088336;28;20289;-65
2021/08/09 06:31:51;;;;;;;1999.90;999.90;;;;;;;24.69;58.76;95952.78;5088379;28;20249;-67
2021/08/09 06:34:20;;;;;;;1999.90;999.90;;;;;;;24.97;57.00;95956.72;5088314;28;20676;-66
2021/08/09 06:36:47;;;;;;;1999.90;999.90;;;;;;;25.31;56.66;95955.31;5088204;28;20307;-66
2021/08/09 06:39:19;;;;;;;1999.90;999.90;;;;;;;25.41;56.02;95954.56;5090521;28;20294;-67
2021/08/09 06:41:46;;;;;;;1999.90;999.90;;;;;;;25.39;55.21;95948.88;5068643;28;20188;-67
2021/08/09 06:44:13;;;;;;;1999.90;999.90;;;;;;;25.59;54.69;95958.06;5071801;28;20258;-67
2021/08/09 06:46:40;;;;;;;1999.90;999.90;;;;;;;25.67;55.21;95954.25;5071792;28;20665;-66
2021/08/09 06:49:08;;;;;;;1999.90;999.90;;;;;;;25.87;51.61;95953.88;5071879;28;20189;-66
2021/08/09 06:51:36;;;;;;;1999.90;999.90;;;;;;;26.01;47.77;95948.56;5071752;28;20196;-67
2021/08/09 06:54:04;;;;;;;1999.90;999.90;;;;;;;26.08;48.77;95948.56;5071984;28;20239;-66
2021/08/09 06:56:31;;;;;;;1999.90;999.90;;;;;;;25.71;48.80;95954.25;5071621;28;20224;-66
2021/08/09 06:58:58;;;;;;;1999.90;999.90;;;;;;;25.98;50.81;95959.97;5071498;28;20197;-66
2021/08/09 07:01:27;;;;;;;1999.90;999.90;;;;;;;26.03;51.23;95949.72;5071881;28;20283;-66
2021/08/09 07:03:54;;;;;;;1999.90;999.90;;;;;;;26.51;49.80;95943.94;5071711;28;20200;-67
2021/08/09 07:06:23;;;;;;;1999.90;999.90;;;;;;;26.71;47.40;95947.69;5071504;28;20202;-66
2021/08/09 07:08:53;;;;;;;1999.90;999.90;;;;;;;26.93;47.29;95951.84;5071710;28;20204;-67
2021/08/09 07:11:21;;;;;;;1999.90;999.90;;;;;;;27.27;47.29;95945.97;5071365;28;20196;-66
2021/08/09 07:13:49;;;;;;;1999.90;999.90;;;;;;;27.65;44.76;95952.22;5071300;28;20665;-66
2021/08/09 07:16:16;;;;;;;1999.90;999.90;;;;;;;27.61;45.34;95952.25;5071151;28;20311;-67
2021/08/09 07:18:43;;;;;;;1999.90;999.90;;;;;;;27.80;43.77;95950.97;5071163;28;20240;-67
2021/08/09 07:21:11;;;;;;;1999.90;999.90;;;;;;;27.67;44.58;95949.94;5071062;28;20200;-66
2021/08/09 07:23:38;;;;;;;1999.90;999.90;;;;;;;27.69;44.36;95948.41;5071067;28;20197;-67
2021/08/09 07:26:07;;;;;;;1999.90;999.90;;;;;;;28.00;43.37;95951.22;5071483;28;20287;-67
2021/08/09 07:28:35;;;;;;;1999.90;999.90;;;;;;;27.99;41.27;95955.81;5071026;28;20676;-66
2021/08/09 07:31:03;;;;;;;1999.90;999.90;;;;;;;28.11;40.88;95951.88;5071053;28;20200;-66
2021/08/09 07:33:30;;;;;;;1999.90;999.90;;;;;;;28.38;40.84;95949.38;5071093;28;20283;-65
2021/08/09 07:36:00;;;;;;;1999.90;999.90;;;;;;;28.61;41.58;95957.53;5070792;28;20223;-66
2021/08/09 07:38:27;;;;;;;1999.90;999.90;;;;;;;28.82;41.53;95946.63;5070785;28;20197;-65
2021/08/09 07:40:54;;;;;;;1999.90;999.90;;;;;;;29.09;38.34;95950.13;5088587;28;20262;-66
2021/08/09 07:43:23;;;;;;;1999.90;999.90;;;;;;;29.19;36.08;95958.44;5091290;28;20200;-66
2021/08/09 07:45:50;;;;;;;1999.90;999.90;;;;;;;29.32;35.10;95954.06;5109638;28;20274;-66
2021/08/09 07:48:18;;;;;;;1999.90;999.90;;;;;;;29.41;35.13;95962.38;5111239;28;20286;-66
2021/08/09 07:50:45;;;;;;;1999.90;999.90;;;;;;;29.39;35.86;95957.41;5110017;28;20626;-66
2021/08/09 07:53:12;;;;;;;1999.90;999.90;;;;;;;29.35;37.05;95955.94;5111089;28;20191;-66
2021/08/09 07:55:39;;;;;;;1999.90;999.90;;;;;;;29.44;37.38;95964.25;5111401;28;20286;-65
2021/08/09 07:58:07;;;;;;;1999.90;999.90;;;;;;;29.51;36.37;95964.13;5111084;28;20232;-66
2021/08/09 08:00:36;;;;;;;1999.90;999.90;;;;;;;29.31;36.85;95965.94;5111299;28;20199;-67
2021/08/09 08:03:03;;;;;;;1999.90;999.90;;;;;;;29.43;36.07;95968.84;5110828;28;20220;-67
2021/08/09 08:05:30;;;;;;;1999.90;999.90;;;;;;;29.75;35.75;95970.28;5111220;28;20223;-67
2021/08/09 08:07:57;;;;;;;1999.90;999.90;;;;;;;29.66;36.18;95970.81;5111367;28;20299;-67
2021/08/09 08:10:25;;;;;;;1999.90;999.90;;;;;;;29.70;35.36;95974.19;5110853;28;20203;-67
2021/08/09 08:12:52;;;;;;;1999.90;999.90;;;;;;;29.91;34.10;95976.59;5110957;28;20237;-67
2021/08/09 08:15:19;;;;;;;1999.90;999.90;;;;;;;30.02;35.27;95975.66;5110775;28;20247;-66
2021/08/09 08:17:48;;;;;;;1999.90;999.90;;;;;;;29.84;36.71;95973.97;5110856;28;20315;-66
2021/08/09 08:20:15;;;;;;;1999.90;999.90;;;;;;;29.48;37.22;95970.31;5110635;28;20291;-66
2021/08/09 08:22:43;;;;;;;1999.90;999.90;;;;;;;29.74;37.05;95972.22;5111042;28;20210;-66
2021/08/09 08:25:11;;;;;;;1999.90;999.90;;;;;;;29.89;37.05;95972.78;5110452;28;20203;-67
2021/08/09 08:27:38;;;;;;;1999.90;999.90;;;;;;;30.00;36.88;95957.28;5110715;28;20268;-67
2021/08/09 08:30:07;;;;;;;1999.90;999.90;;;;;;;30.14;38.07;95964.34;5110421;28;20604;-66
2021/08/09 08:32:35;;;;;;;1999.90;999.90;;;;;;;30.41;37.88;95958.91;5110732;28;20572;-66
2021/08/09 08:35:04;;;;;;;1999.90;999.90;;;;;;;30.46;36.57;95956.53;5110121;28;20199;-66
2021/08/09 08:37:31;;;;;;;1999.90;999.90;;;;;;;30.70;37.23;95960.69;5110218;28;20336;-66
2021/08/09 08:39:58;;;;;;;1999.90;999.90;;;;;;;31.02;37.70;95960.09;5110027;28;20715;-66
2021/08/09 08:42:25;;;;;;;1999.90;999.90;;;;;;;30.82;36.86;95962.00;5110115;28;20278;-66
2021/08/09 08:44:52;;;;;;;1999.90;999.90;;;;;;;30.86;35.67;95962.69;5110491;28;20279;-66
2021/08/09 08:47:22;;;;;;;1999.90;999.90;;;;;;;30.82;36.01;95953.94;5110139;28;20187;-66
2021/08/09 08:49:49;;;;;;;1999.90;999.90;;;;;;;31.04;35.64;95955.06;5110042;28;20233;-66
2021/08/09 08:52:18;;;;;;;1999.90;999.90;;;;;;;31.16;35.24;95950.97;5109963;28;20331;-66
2021/08/09 08:54:45;;;;;;;1999.90;999.90;;;;;;;31.39;35.28;95956.22;5110149;28;20295;-66
2021/08/09 08:57:18;;;;;;;1999.90;999.90;;;;;;;31.58;34.86;95950.06;5110216;28;20651;-66
2021/08/09 08:59:45;;;;;;;1999.90;999.90;;;;;;;31.84;35.08;95950.25;5109741;28;20201;-66
2021/08/09 09:02:31;;;;;;;1999.90;999.90;;;;;;;31.94;36.98;95943.88;5109723;28;20202;-66
2021/08/09 09:05:13;;;;;;;1999.90;999.90;;;;;;;32.07;34.76;95947.41;5110128;28;20214;-67
2021/08/09 09:07:44;;;;;;;1999.90;999.90;;;;;;;32.41;33.53;95945.00;5109797;28;20229;-66
2021/08/09 09:10:29;;;;;;;1999.90;999.90;;;;;;;32.29;34.75;95943.00;5109667;28;20274;-66
2021/08/09 09:13:13;;;;;;;1999.90;999.90;;;;;;;32.33;35.74;95935.59;5109698;28;20194;-67
2021/08/09 09:15:58;;;;;;;1999.90;999.90;;;;;;;32.34;35.59;95944.44;5109939;28;20260;-67
2021/08/09 09:18:27;;;;;;;1999.90;999.90;;;;;;;32.44;34.50;95936.09;5109531;28;20280;-67
2021/08/09 09:20:55;;;;;;;1999.90;999.90;;;;;;;32.47;34.71;95935.25;5109612;28;20211;-67
2021/08/09 09:23:24;;;;;;;1999.90;999.90;;;;;;;32.64;32.68;95935.22;5109785;28;20202;-66
2021/08/09 09:25:53;;;;;;;1999.90;999.90;;;;;;;32.85;35.92;95931.94;5109316;28;20309;-67
2021/08/09 09:28:29;;;;;;;1999.90;999.90;;;;;;;33.25;32.45;95933.09;5109351;28;20196;-67
2021/08/09 09:31:02;;;;;;;1999.90;999.90;;;;;;;33.35;33.50;95936.66;5109278;28;20194;-67
2021/08/09 09:33:31;;;;;;;1999.90;999.90;;;;;;;33.75;33.04;95926.22;5109277;28;20761;-67
2021/08/09 09:36:02;;;;;;;1999.90;999.90;;;;;;;33.81;31.98;95929.88;5109218;28;20203;-67
2021/08/09 09:38:41;;;;;;;1999.90;999.90;;;;;;;33.82;31.34;95926.00;5109228;28;20299;-67
2021/08/09 09:41:09;;;;;;;1999.90;999.90;;;;;;;33.86;31.41;95932.03;5108924;28;20233;-67
2021/08/09 09:43:41;;;;;;;1999.90;999.90;;;;;;;33.79;33.23;95931.47;5109228;28;20203;-67
2021/08/09 09:46:20;;;;;;;1999.90;999.90;;;;;;;33.74;33.12;95924.69;5109131;28;20283;-67
2021/08/09 09:48:47;;;;;;;1999.90;999.90;;;;;;;33.87;33.14;95922.75;5109115;28;20560;-67
2021/08/09 09:51:16;;;;;;;1999.90;999.90;;;;;;;33.72;32.51;95922.44;5109271;28;20230;-67
2021/08/09 09:53:47;;;;;;;1999.90;999.90;;;;;;;34.01;30.54;95919.59;5107721;28;20602;-67
2021/08/09 09:56:14;;;;;;;1999.90;999.90;;;;;;;34.38;29.55;95914.50;5088708;28;20192;-67
2021/08/09 09:58:42;;;;;;;1999.90;999.90;;;;;;;34.48;29.26;95914.13;5088555;28;20986;-68
2021/08/09 10:01:10;;;;;;;1999.90;999.90;;;;;;;34.44;30.22;95915.47;5088751;28;20191;-67
2021/08/09 10:03:39;;;;;;;1999.90;999.90;;;;;;;34.52;29.09;95906.66;5088720;28;20243;-67
2021/08/09 10:06:08;;;;;;;1999.90;999.90;;;;;;;34.51;29.25;95899.78;5088946;28;20265;-67
2021/08/09 10:08:41;;;;;;;1999.90;999.90;;;;;;;34.51;29.27;95904.44;5088451;28;20253;-67
2021/08/09 10:11:10;;;;;;;1999.90;999.90;;;;;;;34.63;28.56;95900.88;5088557;28;20241;-68
2021/08/09 10:13:39;;;;;;;1999.90;999.90;;;;;;;34.72;28.81;95895.56;5089820;28;20223;-67
2021/08/09 10:16:08;;;;;;;1999.90;999.90;;;;;;;34.72;30.09;95895.56;5092632;28;20283;-67
2021/08/09 10:18:38;;;;;;;1999.90;999.90;;;;;;;34.81;29.33;95884.84;5092568;28;20824;-67
2021/08/09 10:21:07;;;;;;;1999.90;999.90;;;;;;;34.80;28.78;95886.03;5092722;28;20191;-68
2021/08/09 10:23:39;;;;;;;1999.90;999.90;;;;;;;34.83;28.99;95887.84;5092585;28;20253;-67
2021/08/09 10:26:08;;;;;;;1999.90;999.90;;;;;;;34.94;30.25;95887.44;5092431;28;20728;-68
2021/08/09 10:29:08;;;;;;;1999.90;999.90;;;;;;;34.86;27.45;95884.28;5092887;28;20328;-68
2021/08/09 10:31:39;;;;;;;1999.90;999.90;;;;;;;34.86;28.13;95880.81;5092382;28;20861;-66
2021/08/09 10:34:08;;;;;;;1999.90;999.90;;;;;;;35.01;28.10;95891.84;5092778;28;20253;-68
2021/08/09 10:37:10;;;;;;;1999.90;999.90;;;;;;;35.09;28.33;95879.56;5092238;28;20203;-68
2021/08/09 10:40:05;;;;;;;1999.90;999.90;;;;;;;35.27;28.19;95882.38;5088491;28;20721;-68
2021/08/09 10:42:36;;;;;;;1999.90;999.90;;;;;;;35.29;26.95;95879.97;5045270;28;20218;-68
2021/08/09 10:45:08;;;;;;;1999.90;999.90;;;;;;;35.54;25.69;95874.34;5092203;28;20188;-68
2021/08/09 10:47:55;;;;;;;1999.90;999.90;;;;;;;35.71;28.21;95872.91;5092458;28;20180;-68
2021/08/09 10:50:48;;;;;;;1999.90;999.90;;;;;;;35.62;26.67;95875.53;5091949;28;20192;-68
2021/08/09 10:53:41;;;;;;;1999.90;999.90;;;;;;;35.61;28.21;95873.31;5092084;28;20199;-68
2021/08/09 10:56:09;;;;;;;1999.90;999.90;;;;;;;35.52;25.42;95865.91;5091946;28;20211;-67
2021/08/09 10:58:57;;;;;;;1999.90;999.90;;;;;;;35.91;26.83;95869.78;5091933;28;20220;-68
2021/08/09 11:01:27;;;;;;;1999.90;999.90;;;;;;;36.07;27.72;95866.00;5092253;28;20199;-67
2021/08/09 11:04:13;;;;;;;1999.90;999.90;;;;;;;36.04;26.23;95861.50;5092187;28;20194;-69